Skeppmora, Sweden

2:09 PM CET on December 20, 2014 (GMT +0100)
ILUDVIKA2 | Change Station
CLOSE
Current Station
Personal Weather Station
Location: LUDVIKA, DALARNA
Elevation: 560 ft
Nearby Weather Stations

Elev 560 ft 60.14 °N, 15.18 °E | Updated 43 seconds ago

Clear
Clear
29.5 °F
Feels Like 26 °F
N
3.6
Wind Variable Wind from NNW
Gusts 5.8 mph

Today
High -- | Low -- °F
--% Chance of Precip.
Yesterday
High -- | Low -- °F
Precip. -- in
9:01 AM 2:52 PM
Waning Crescent, 3% visible
Pressure 29.15 in
Visibility 6.2 miles
Clouds
Windchill 26 °F
Dew Point 24 °F
Humidity 79%
Rainfall 0.00 in
Snow Depth Not available.
UV Not available.
Pollen Not available.
Air Quality Not available.
Flu Activity Not available.
METAR ESSD 201250Z AUTO 25004KT 9999 NCD M03/M05 Q0987

More Conditions Fewer Conditions

Pressure 29.15 in
Visibility 6.2 miles
Clouds
Windchill 26 °F
Dew Point 24 °F
Humidity 79%
Rainfall 0.00 in
Snow Depth Not available.
UV Not available.
Pollen Not available.
Air Quality Not available.
Flu Activity Not available.
METAR ESSD 201250Z AUTO 25004KT 9999 NCD M03/M05 Q0987

More Conditions Fewer Conditions

10-Day Weather Forecast

Almanac

Astronomy

Dec. 20, 2014 Rise Set
Actual Time
Civil Twilight
Nautical Twilight
Astronomical Twilight
Moon
Length of Visible Light
Length of Day
Tomorrow will be .
, % of the Moon is Illuminated

Today's Extremes

Country Highs Country Lows

Community

WunderPhotos

Upload Photos

1,779,167 photos uploaded!

WunderBlogs® & News

Nearby

Air Quality

  Air Quality AQ Index Pollutant
Not available.

Snow Depth

Station Depth Elevation

Earthquake Activity

City Distance Mag. Time & Date
Minimum magnitude displayed is 2.5.

Coastal Water Temperatures

Place Temperature

Nearby Weather Stations